createdAt,value
2022-12-19T00:01:55.486Z,48.70
2022-12-19T00:04:22.507Z,48.62
2022-12-19T00:06:49.520Z,48.60
2022-12-19T00:09:16.590Z,48.29
2022-12-19T00:11:43.594Z,48.43
2022-12-19T00:14:11.821Z,48.41
2022-12-19T00:16:38.839Z,48.98
2022-12-19T00:19:07.873Z,49.16
2022-12-19T00:21:35.497Z,50.10
2022-12-19T00:24:18.399Z,49.82
2022-12-19T00:26:49.025Z,49.49
2022-12-19T00:29:16.287Z,49.61
2022-12-19T00:31:43.725Z,49.61
2022-12-19T00:34:11.012Z,49.69
2022-12-19T00:36:40.105Z,49.71
2022-12-19T00:39:08.768Z,49.41
2022-12-19T00:41:41.691Z,49.34
2022-12-19T00:44:15.527Z,48.73
2022-12-19T00:46:43.012Z,48.76
2022-12-19T00:49:14.114Z,48.80
2022-12-19T00:51:41.187Z,48.23
2022-12-19T00:54:10.921Z,48.42
2022-12-19T00:56:38.931Z,48.33
2022-12-19T00:59:10.392Z,48.42
2022-12-19T01:01:41.362Z,48.19
2022-12-19T01:04:30.781Z,48.20
2022-12-19T01:07:02.118Z,47.95
2022-12-19T01:09:33.772Z,47.54
2022-12-19T01:12:20.484Z,47.13
2022-12-19T01:15:03.758Z,47.02
2022-12-19T01:17:36.990Z,46.77
2022-12-19T01:20:14.506Z,46.47
2022-12-19T01:22:41.492Z,46.27
2022-12-19T01:25:08.801Z,46.37
2022-12-19T01:27:38.616Z,46.20
2022-12-19T01:30:07.474Z,46.66
2022-12-19T01:32:36.298Z,46.52
2022-12-19T01:35:04.338Z,46.52
2022-12-19T01:37:31.246Z,46.63
2022-12-19T01:39:58.504Z,46.63
2022-12-19T01:42:25.414Z,46.63
2022-12-19T01:45:07.691Z,46.71
2022-12-19T01:48:04.182Z,46.61
2022-12-19T01:50:59.074Z,46.48
2022-12-19T01:53:37.329Z,46.25
2022-12-19T01:56:17.395Z,46.47
2022-12-19T01:58:47.531Z,46.18
2022-12-19T02:01:17.892Z,46.12
2022-12-19T02:03:45.904Z,46.96
2022-12-19T02:06:16.341Z,46.68
2022-12-19T02:08:47.491Z,46.37
2022-12-19T02:11:14.671Z,46.39
2022-12-19T02:13:42.076Z,46.48
2022-12-19T02:16:51.849Z,46.14
2022-12-19T02:19:55.572Z,46.27
2022-12-19T02:23:00.628Z,46.11
2022-12-19T02:25:56.648Z,45.99
2022-12-19T02:29:16.927Z,45.91
2022-12-19T02:31:53.191Z,46.21
2022-12-19T02:34:32.788Z,46.24
2022-12-19T02:37:14.208Z,46.28
2022-12-19T02:40:21.868Z,46.39
2022-12-19T02:42:58.309Z,46.24
2022-12-19T02:45:30.976Z,46.32
2022-12-19T02:48:04.518Z,46.75
2022-12-19T02:50:44.634Z,46.29
2022-12-19T02:53:16.135Z,45.85
2022-12-19T02:56:23.338Z,45.97
2022-12-19T02:59:10.138Z,45.73
2022-12-19T03:01:52.964Z,45.94
2022-12-19T03:04:28.949Z,46.11
2022-12-19T03:07:18.293Z,46.06
2022-12-19T03:10:21.866Z,46.22
2022-12-19T03:13:04.021Z,46.38
2022-12-19T03:15:32.889Z,46.27
2022-12-19T03:18:01.798Z,46.12
2022-12-19T03:21:12.745Z,46.21
2022-12-19T03:23:41.258Z,46.49
2022-12-19T03:26:21.846Z,46.12
2022-12-19T03:29:15.271Z,46.27
2022-12-19T03:31:45.378Z,46.30
2022-12-19T03:34:21.426Z,46.79
2022-12-19T03:36:56.565Z,46.61
2022-12-19T03:39:26.515Z,46.55
2022-12-19T03:42:13.764Z,46.64
2022-12-19T03:44:43.354Z,46.13
2022-12-19T03:47:42.046Z,46.15
2022-12-19T03:50:10.066Z,46.06
2022-12-19T03:52:52.285Z,46.32
2022-12-19T03:55:22.614Z,46.06
2022-12-19T03:58:09.772Z,46.29
2022-12-19T04:00:39.270Z,45.99
2022-12-19T04:03:08.391Z,46.17
2022-12-19T04:05:37.733Z,46.43
2022-12-19T04:08:08.363Z,46.55
2022-12-19T04:11:08.154Z,46.21
2022-12-19T04:14:02.468Z,46.50
2022-12-19T04:16:48.741Z,46.44
2022-12-19T04:19:27.365Z,46.48
2022-12-19T04:22:12.524Z,46.78
2022-12-19T04:24:42.155Z,46.57
2022-12-19T04:27:11.263Z,46.64
2022-12-19T04:29:39.922Z,46.97
2022-12-19T04:32:08.953Z,46.66
2022-12-19T04:34:38.933Z,46.63
2022-12-19T04:37:10.332Z,46.74
2022-12-19T04:39:37.500Z,46.81
2022-12-19T04:42:04.664Z,46.87
2022-12-19T04:44:31.761Z,46.95
2022-12-19T04:46:58.839Z,46.99
2022-12-19T04:49:25.988Z,47.35
2022-12-19T04:51:53.025Z,47.73
2022-12-19T04:54:21.582Z,47.30
2022-12-19T04:56:48.666Z,47.41
2022-12-19T04:59:15.791Z,47.63
2022-12-19T05:01:42.895Z,47.40
2022-12-19T05:04:10.054Z,47.69
2022-12-19T05:06:38.306Z,47.66
2022-12-19T05:09:05.491Z,47.62
2022-12-19T05:11:32.646Z,47.24
2022-12-19T05:14:00.044Z,47.17
2022-12-19T05:16:27.244Z,47.51
2022-12-19T05:18:54.592Z,47.39
2022-12-19T05:21:23.096Z,47.48
2022-12-19T05:23:51.422Z,47.78
2022-12-19T05:26:18.701Z,48.10
2022-12-19T05:28:45.704Z,47.75
2022-12-19T05:31:19.934Z,47.93
2022-12-19T05:33:48.787Z,48.34
2022-12-19T05:36:17.491Z,48.25
2022-12-19T05:38:44.971Z,48.42
2022-12-19T05:41:21.886Z,48.20
2022-12-19T05:43:55.669Z,48.46
2022-12-19T05:46:23.812Z,48.34
2022-12-19T05:48:51.661Z,48.44
2022-12-19T05:51:19.516Z,48.09
2022-12-19T05:53:47.033Z,48.02
2022-12-19T05:56:18.538Z,47.85
2022-12-19T05:58:46.473Z,47.99
2022-12-19T06:03:49.684Z,47.77
2022-12-19T06:06:20.411Z,47.91
2022-12-19T06:08:47.685Z,47.88
2022-12-19T06:11:15.316Z,47.77
2022-12-19T06:13:42.533Z,47.89
2022-12-19T06:16:18.707Z,47.82
2022-12-19T06:18:46.829Z,48.29
2022-12-19T06:21:17.707Z,48.29
2022-12-19T06:23:45.605Z,48.21
2022-12-19T06:26:19.368Z,47.98
2022-12-19T06:28:49.405Z,47.93
2022-12-19T06:31:17.095Z,48.03
2022-12-19T06:33:44.754Z,48.00
2022-12-19T06:36:26.019Z,47.83
2022-12-19T06:38:54.777Z,48.20
2022-12-19T06:41:40.729Z,47.94
2022-12-19T06:44:12.090Z,47.78
2022-12-19T06:46:41.387Z,47.82
2022-12-19T06:49:10.078Z,47.68
2022-12-19T06:51:37.580Z,47.57
2022-12-19T06:54:05.202Z,47.51
2022-12-19T06:56:40.901Z,47.19
2022-12-19T06:59:12.032Z,47.69
2022-12-19T07:01:57.087Z,47.50
2022-12-19T07:04:33.427Z,47.91
2022-12-19T07:07:01.277Z,47.71
2022-12-19T07:09:29.758Z,47.62
2022-12-19T07:11:57.077Z,47.60
2022-12-19T07:14:24.249Z,47.80
2022-12-19T07:16:53.165Z,47.86
2022-12-19T07:19:22.103Z,47.74
2022-12-19T07:21:49.443Z,47.72
2022-12-19T07:24:16.674Z,47.79
2022-12-19T07:26:45.111Z,47.53
2022-12-19T07:29:12.766Z,47.75
2022-12-19T07:31:39.899Z,47.69
2022-12-19T07:34:06.999Z,47.98
2022-12-19T07:36:34.195Z,47.58
2022-12-19T07:39:01.798Z,47.42
2022-12-19T07:41:28.896Z,47.74
2022-12-19T07:43:56.004Z,47.98
2022-12-19T07:46:23.267Z,47.49
2022-12-19T07:48:50.758Z,46.90
2022-12-19T07:51:17.861Z,46.99
2022-12-19T07:53:44.927Z,46.90
2022-12-19T07:56:12.059Z,46.81
2022-12-19T07:58:39.253Z,46.83
2022-12-19T08:01:06.502Z,46.65
2022-12-19T08:03:35.984Z,46.27
2022-12-19T08:06:06.489Z,45.85
2022-12-19T08:08:34.695Z,45.62
2022-12-19T08:11:27.278Z,45.70
2022-12-19T08:13:55.237Z,45.52
2022-12-19T08:16:25.423Z,45.56
2022-12-19T08:18:53.648Z,45.74
2022-12-19T08:21:21.283Z,45.87
2022-12-19T08:23:48.815Z,45.84
2022-12-19T08:26:24.869Z,46.03
2022-12-19T08:28:58.091Z,45.95
2022-12-19T08:31:27.408Z,46.09
2022-12-19T08:33:57.273Z,45.85
2022-12-19T08:36:24.650Z,45.60
2022-12-19T08:38:52.468Z,45.47
2022-12-19T08:41:19.844Z,45.40
2022-12-19T08:43:54.144Z,45.09
2022-12-19T08:46:22.647Z,45.02
2022-12-19T08:48:50.309Z,45.18
2022-12-19T08:51:18.173Z,44.95
2022-12-19T08:53:46.731Z,44.30
2022-12-19T08:56:20.375Z,44.19
2022-12-19T08:58:48.063Z,44.24
2022-12-19T09:01:24.200Z,44.46
2022-12-19T09:04:03.912Z,44.73
2022-12-19T09:06:38.667Z,44.57
2022-12-19T09:09:05.913Z,44.44
2022-12-19T09:11:33.451Z,44.75
2022-12-19T09:14:05.075Z,44.91
2022-12-19T09:16:32.301Z,44.80
2022-12-19T09:18:59.452Z,44.82
2022-12-19T09:21:29.292Z,44.75
2022-12-19T09:24:07.066Z,44.33
2022-12-19T09:26:36.193Z,44.22
2022-12-19T09:29:08.256Z,44.35
2022-12-19T09:31:47.530Z,44.33
2022-12-19T09:34:16.373Z,44.78
2022-12-19T09:36:43.575Z,44.75
2022-12-19T09:39:12.438Z,44.94
2022-12-19T09:41:42.264Z,44.66
2022-12-19T09:44:52.790Z,44.12
2022-12-19T09:47:29.473Z,44.24
2022-12-19T09:50:00.060Z,44.08
2022-12-19T09:52:44.615Z,43.92
2022-12-19T09:55:24.828Z,44.03
2022-12-19T09:58:20.722Z,43.95
2022-12-19T10:01:00.231Z,44.14
2022-12-19T10:03:42.541Z,44.47
2022-12-19T10:07:21.157Z,43.97
2022-12-19T10:10:38.380Z,44.06
2022-12-19T10:12:57.088Z,44.14
2022-12-19T10:15:44.042Z,44.54
2022-12-19T10:18:42.338Z,44.41
2022-12-19T10:22:18.387Z,44.11
2022-12-19T10:25:02.038Z,44.60
2022-12-19T10:27:59.559Z,44.16
2022-12-19T10:30:32.327Z,44.12
2022-12-19T10:33:23.323Z,43.55
2022-12-19T10:35:57.517Z,43.61
2022-12-19T10:38:46.282Z,43.77
2022-12-19T10:41:26.410Z,43.61
2022-12-19T10:44:02.655Z,43.10
2022-12-19T10:46:38.435Z,43.13
2022-12-19T10:49:17.021Z,42.99
2022-12-19T10:51:56.461Z,43.12
2022-12-19T10:54:30.712Z,42.69
2022-12-19T10:57:28.380Z,42.68
2022-12-19T11:00:00.998Z,42.87
2022-12-19T11:02:44.698Z,42.58
2022-12-19T11:05:51.247Z,42.38
2022-12-19T11:08:30.870Z,42.92
2022-12-19T11:13:33.810Z,42.61
2022-12-19T11:19:52.795Z,42.26
2022-12-19T11:22:58.036Z,41.92
2022-12-19T11:29:16.270Z,41.84
2022-12-19T11:29:41.739Z,42.05
2022-12-19T11:30:09.921Z,42.25
2022-12-19T11:30:48.858Z,41.43
2022-12-19T11:34:26.532Z,41.80
2022-12-19T11:37:26.894Z,41.77
2022-12-19T11:40:05.527Z,41.76
2022-12-19T11:43:25.573Z,41.79
2022-12-19T11:45:57.829Z,42.27
2022-12-19T11:48:49.878Z,42.63
2022-12-19T11:51:48.929Z,43.07
2022-12-19T11:54:32.991Z,43.40
2022-12-19T11:57:00.747Z,43.58
2022-12-19T11:59:38.678Z,44.21
2022-12-19T12:02:58.746Z,44.49
2022-12-19T12:05:48.302Z,44.22
2022-12-19T12:10:12.004Z,44.74
2022-12-19T12:18:50.504Z,44.91
2022-12-19T12:26:55.553Z,45.12
2022-12-19T12:31:01.331Z,45.42
2022-12-19T12:31:09.677Z,45.67
2022-12-19T12:31:58.468Z,45.24
2022-12-19T12:32:06.510Z,45.36
2022-12-19T12:35:38.054Z,44.96
2022-12-19T12:42:04.605Z,45.11
2022-12-19T12:44:45.284Z,45.63
2022-12-19T12:47:22.560Z,45.40
2022-12-19T12:49:55.901Z,45.37
2022-12-19T12:52:45.883Z,45.60
2022-12-19T12:55:15.546Z,45.65
2022-12-19T12:57:42.693Z,46.33
2022-12-19T13:00:19.596Z,47.08
2022-12-19T13:03:16.552Z,47.13
2022-12-19T13:05:46.759Z,47.33
2022-12-19T13:08:48.950Z,48.48
2022-12-19T13:12:04.488Z,49.34
2022-12-19T13:14:34.729Z,48.87
2022-12-19T13:17:18.281Z,48.49
2022-12-19T13:20:03.580Z,48.99
2022-12-19T13:22:31.468Z,49.07
2022-12-19T13:25:00.605Z,49.41
2022-12-19T13:27:38.760Z,49.04
2022-12-19T13:30:14.956Z,49.65
2022-12-19T13:32:42.005Z,49.61
2022-12-19T13:36:05.195Z,49.94
2022-12-19T13:39:59.350Z,50.27
2022-12-19T13:41:24.264Z,50.06
2022-12-19T13:43:51.606Z,50.63
2022-12-19T13:46:47.997Z,50.37
2022-12-19T13:49:19.443Z,51.17
2022-12-19T13:51:49.084Z,51.46
2022-12-19T13:54:24.893Z,51.30
2022-12-19T13:56:54.308Z,51.53
2022-12-19T13:59:26.499Z,51.88
2022-12-19T14:01:55.083Z,52.45
2022-12-19T14:04:30.397Z,52.40
2022-12-19T14:07:06.333Z,52.57
2022-12-19T14:11:36.817Z,53.05
2022-12-19T14:13:54.750Z,53.24
2022-12-19T14:15:52.405Z,53.18
2022-12-19T14:18:43.178Z,53.20
2022-12-19T14:22:04.926Z,53.05
2022-12-19T14:24:25.015Z,53.67
2022-12-19T14:28:24.584Z,53.73
2022-12-19T14:30:30.317Z,53.95
2022-12-19T14:33:44.433Z,54.06
2022-12-19T14:36:10.603Z,54.24
2022-12-19T14:39:27.377Z,54.64
2022-12-19T14:41:49.137Z,54.43
2022-12-19T14:52:08.128Z,55.29
2022-12-19T14:53:51.899Z,54.91
2022-12-19T14:54:25.678Z,55.17
2022-12-19T14:54:27.384Z,55.24
2022-12-19T14:59:13.602Z,55.48
2022-12-19T15:01:40.982Z,55.84
2022-12-19T15:04:53.140Z,55.85
2022-12-19T15:07:15.217Z,55.74
2022-12-19T15:11:03.347Z,55.76
2022-12-19T15:14:47.323Z,55.89
2022-12-19T15:16:06.498Z,55.82
2022-12-19T15:18:33.570Z,55.66
2022-12-19T15:21:04.181Z,55.91
2022-12-19T15:23:32.763Z,55.75
2022-12-19T15:26:12.004Z,55.46
2022-12-19T15:28:58.427Z,55.58
2022-12-19T15:31:43.292Z,55.80
2022-12-19T15:36:58.501Z,56.37
2022-12-19T15:39:29.453Z,56.16
2022-12-19T15:41:59.662Z,56.38
2022-12-19T15:44:32.519Z,56.30
2022-12-19T15:47:06.355Z,56.51
2022-12-19T15:49:35.213Z,56.30
2022-12-19T15:52:02.976Z,56.25
2022-12-19T15:57:31.979Z,56.63
2022-12-19T16:00:04.352Z,56.51
2022-12-19T16:02:56.862Z,56.36
2022-12-19T16:05:23.031Z,56.44
2022-12-19T16:07:50.379Z,56.58
2022-12-19T16:10:18.857Z,56.41
2022-12-19T16:12:51.983Z,56.63
2022-12-19T16:15:41.079Z,56.35
2022-12-19T16:18:14.009Z,56.26
2022-12-19T16:20:43.149Z,56.65
2022-12-19T16:23:11.754Z,56.30
2022-12-19T16:25:45.681Z,56.35
2022-12-19T16:28:29.464Z,56.46
2022-12-19T16:30:58.840Z,56.58
2022-12-19T16:33:29.733Z,56.47
2022-12-19T16:36:06.511Z,56.02
2022-12-19T16:38:35.491Z,55.87
2022-12-19T16:41:02.939Z,56.23
2022-12-19T16:43:39.232Z,56.03
2022-12-19T16:46:08.644Z,55.87
2022-12-19T16:48:36.003Z,55.99
2022-12-19T16:51:03.691Z,56.18
2022-12-19T16:53:31.160Z,56.02
2022-12-19T16:56:00.141Z,56.02
2022-12-19T16:58:28.938Z,55.71
2022-12-19T17:00:56.799Z,55.91
2022-12-19T17:03:36.415Z,56.08
2022-12-19T17:06:04.380Z,56.31
2022-12-19T17:08:32.502Z,55.96
2022-12-19T17:10:59.917Z,56.29
2022-12-19T17:13:27.320Z,56.11
2022-12-19T17:15:57.293Z,56.14
2022-12-19T17:18:32.492Z,56.17
2022-12-19T17:21:00.051Z,55.66
2022-12-19T17:23:30.138Z,56.00
2022-12-19T17:25:59.418Z,55.56
2022-12-19T17:28:28.274Z,55.66
2022-12-19T17:30:59.363Z,55.68
2022-12-19T17:33:35.710Z,55.49
2022-12-19T17:36:04.455Z,55.38
2022-12-19T17:38:32.241Z,55.24
2022-12-19T17:40:59.682Z,54.97
2022-12-19T17:43:26.817Z,55.17
2022-12-19T17:45:54.007Z,55.39
2022-12-19T17:48:33.475Z,55.46
2022-12-19T17:51:00.622Z,55.43
2022-12-19T17:53:28.437Z,55.47
2022-12-19T17:55:56.115Z,55.33
2022-12-19T17:58:23.470Z,55.55
2022-12-19T18:00:51.860Z,55.33
2022-12-19T18:03:26.161Z,55.42
2022-12-19T18:05:55.892Z,55.18
2022-12-19T18:08:32.342Z,55.19
2022-12-19T18:11:03.172Z,55.13
2022-12-19T18:13:31.604Z,54.75
2022-12-19T18:16:02.381Z,54.84
2022-12-19T18:18:35.471Z,54.77
2022-12-19T18:21:04.668Z,54.71
2022-12-19T18:23:32.397Z,54.89
2022-12-19T18:26:02.366Z,54.59
2022-12-19T18:28:30.485Z,54.44
2022-12-19T18:31:22.908Z,55.06
2022-12-19T18:33:50.522Z,55.31
2022-12-19T18:36:24.622Z,55.03
2022-12-19T18:38:52.904Z,55.33
2022-12-19T18:41:21.110Z,55.20
2022-12-19T18:43:49.282Z,55.17
2022-12-19T18:46:24.667Z,55.66
2022-12-19T18:48:51.834Z,55.64
2022-12-19T18:51:21.712Z,55.54
2022-12-19T18:53:49.570Z,55.65
2022-12-19T18:56:16.782Z,55.70
2022-12-19T18:58:43.922Z,56.16
2022-12-19T19:01:18.186Z,55.98
2022-12-19T19:03:54.933Z,55.84
2022-12-19T19:06:26.290Z,55.91
2022-12-19T19:08:54.114Z,56.13
2022-12-19T19:11:35.334Z,56.45
2022-12-19T19:14:02.400Z,56.55
2022-12-19T19:16:29.861Z,56.02
2022-12-19T19:18:58.801Z,55.89
2022-12-19T19:21:35.229Z,56.11
2022-12-19T19:24:15.929Z,56.40
2022-12-19T19:26:43.118Z,56.47
2022-12-19T19:29:10.985Z,56.29
2022-12-19T19:31:41.443Z,56.29
2022-12-19T19:34:28.319Z,56.10
2022-12-19T19:36:59.348Z,55.75
2022-12-19T19:39:27.919Z,55.87
2022-12-19T19:41:56.346Z,56.06
2022-12-19T19:44:24.828Z,55.97
2022-12-19T19:46:52.092Z,56.16
2022-12-19T19:49:21.425Z,55.87
2022-12-19T19:51:48.600Z,55.77
2022-12-19T19:54:16.030Z,56.14
2022-12-19T19:56:43.187Z,56.52
2022-12-19T19:59:10.757Z,56.72
2022-12-19T20:01:38.063Z,56.74
2022-12-19T20:04:05.471Z,56.84
2022-12-19T20:06:32.795Z,56.67
2022-12-19T20:09:00.044Z,56.87
2022-12-19T20:11:27.716Z,56.52
2022-12-19T20:13:54.741Z,56.42
2022-12-19T20:16:22.721Z,56.70
2022-12-19T20:18:52.311Z,56.69
2022-12-19T20:21:21.418Z,56.67
2022-12-19T20:23:48.776Z,56.58
2022-12-19T20:26:17.380Z,56.57
2022-12-19T20:28:49.377Z,56.74
2022-12-19T20:31:23.127Z,56.28
2022-12-19T20:33:53.229Z,56.22
2022-12-19T20:36:20.671Z,56.25
2022-12-19T20:38:48.625Z,56.36
2022-12-19T20:41:17.300Z,56.21
2022-12-19T20:43:45.244Z,56.04
2022-12-19T20:46:19.767Z,56.60
2022-12-19T20:48:48.387Z,56.24
2022-12-19T20:51:19.323Z,56.11
2022-12-19T20:53:47.217Z,56.86
2022-12-19T20:56:19.428Z,56.64
2022-12-19T20:58:46.926Z,56.32
2022-12-19T21:01:21.088Z,56.18
2022-12-19T21:03:49.039Z,56.14
2022-12-19T21:06:19.846Z,56.20
2022-12-19T21:08:47.803Z,56.49
2022-12-19T21:11:15.923Z,56.08
2022-12-19T21:13:43.258Z,56.32
2022-12-19T21:16:15.141Z,56.27
2022-12-19T21:18:45.431Z,56.52
2022-12-19T21:21:23.238Z,56.54
2022-12-19T21:23:51.683Z,56.35
2022-12-19T21:26:19.808Z,56.41
2022-12-19T21:28:46.882Z,56.59
2022-12-19T21:31:25.284Z,56.36
2022-12-19T21:34:01.251Z,55.93
2022-12-19T21:36:30.234Z,55.58
2022-12-19T21:39:00.514Z,55.66
2022-12-19T21:41:29.341Z,55.72
2022-12-19T21:43:57.004Z,55.27
2022-12-19T21:46:27.777Z,55.58
2022-12-19T21:48:56.739Z,55.78
2022-12-19T21:51:28.324Z,55.54
2022-12-19T21:54:01.571Z,55.61
2022-12-19T21:56:32.551Z,55.58
2022-12-19T21:59:05.625Z,55.53
2022-12-19T22:01:33.858Z,55.42
2022-12-19T22:04:22.738Z,54.63
2022-12-19T22:06:51.290Z,54.81
2022-12-19T22:09:22.444Z,55.25
2022-12-19T22:11:50.028Z,55.15
2022-12-19T22:14:17.925Z,54.84
2022-12-19T22:16:45.269Z,55.11
2022-12-19T22:19:17.747Z,55.46
2022-12-19T22:21:46.778Z,55.28
2022-12-19T22:24:16.219Z,55.36
2022-12-19T22:26:43.691Z,55.26
2022-12-19T22:29:15.018Z,55.86
2022-12-19T22:31:43.356Z,55.69
2022-12-19T22:34:14.221Z,55.98
2022-12-19T22:36:42.920Z,56.02
2022-12-19T22:39:14.678Z,56.07
2022-12-19T22:41:42.684Z,55.80
2022-12-19T22:44:23.065Z,56.11
2022-12-19T22:46:51.050Z,56.21
2022-12-19T22:49:18.335Z,56.23
2022-12-19T22:51:46.320Z,56.20
2022-12-19T22:54:14.075Z,56.09
2022-12-19T22:56:42.225Z,56.07
2022-12-19T22:59:11.929Z,56.31
2022-12-19T23:01:42.720Z,56.19
2022-12-19T23:04:14.221Z,55.93
2022-12-19T23:06:42.102Z,56.22
2022-12-19T23:09:14.301Z,56.28
2022-12-19T23:11:43.173Z,56.31
2022-12-19T23:14:15.155Z,56.44
2022-12-19T23:16:44.259Z,56.30
2022-12-19T23:19:11.842Z,56.25
2022-12-19T23:21:38.948Z,56.43
2022-12-19T23:24:07.160Z,56.92
2022-12-19T23:26:36.968Z,57.01
2022-12-19T23:29:11.061Z,57.26
2022-12-19T23:31:42.456Z,57.61
2022-12-19T23:34:10.627Z,57.26
2022-12-19T23:39:25.574Z,57.12
2022-12-19T23:41:52.634Z,57.13
2022-12-19T23:44:20.210Z,57.36
2022-12-19T23:46:47.330Z,57.12
2022-12-19T23:49:14.445Z,57.41
2022-12-19T23:51:41.514Z,57.28
2022-12-19T23:54:08.909Z,57.44
2022-12-19T23:56:36.625Z,57.72
2022-12-19T23:59:04.082Z,57.54
